Weather reports worldwide

Advertisment
Glen Ogle, United Kingdom (3148): temperature & dewpoint: 13.07.2018 12:00:00 - 19.07.2018 12:00:00 (BST)Glen Ogle, United Kingdom (3148): wind speed & gusts: 13.07.2018 12:00:00 - 19.07.2018 12:00:00 (BST)Glen Ogle, United Kingdom (3148): wind direction: 13.07.2018 12:00:00 - 19.07.2018 12:00:00 (BST)
Date & Time tt [°C] td [°C] ff [km/h] ff [kn] fx [km/h] fx [kn] dd
19.07.2018 12:00:00 12,5 5,6 24 13 - - W
19.07.2018 11:00:00 12,4 3,0 15 8 - - W
19.07.2018 10:00:00 11,9 -0,1 13 7 - - W
19.07.2018 09:00:00 11,2 -4,4 5 3 - - NNW
19.07.2018 08:00:00 11,1 -2,4 4 2 - - WNW
19.07.2018 07:00:00 9,9 1,1 5 3 - - NW
19.07.2018 06:00:00 10,2 6,0 5 3 - - N
19.07.2018 05:00:00 10,3 6,0 5 3 - - NNW
19.07.2018 04:00:00 10,9 5,6 5 3 - - NW
19.07.2018 03:00:00 10,6 6,5 5 3 - - NW
19.07.2018 02:00:00 10,6 7,2 8 4 - - N
19.07.2018 01:00:00 11,0 6,9 9 5 - - NW
19.07.2018 00:00:00 11,5 6,9 15 8 - - WNW
18.07.2018 23:00:00 11,7 7,1 8 4 - - WNW
18.07.2018 22:00:00 12,1 6,7 5 3 - - W
18.07.2018 21:00:00 13,8 4,3 13 7 - - W
18.07.2018 20:00:00 14,7 3,2 9 5 - - WSW
18.07.2018 19:00:00 15,0 2,5 13 7 - - W
18.07.2018 18:00:00 14,4 3,4 15 8 - - W
18.07.2018 17:00:00 15,5 3,3 16 9 - - W
18.07.2018 16:00:00 14,0 2,1 16 9 - - WNW
18.07.2018 15:00:00 13,4 5,0 13 7 - - WNW
18.07.2018 14:00:00 13,3 4,3 15 8 - - W
18.07.2018 13:00:00 12,2 3,7 13 7 - - W
18.07.2018 12:00:00 12,2 4,3 13 7 - - W
18.07.2018 11:00:00 12,0 3,4 13 7 - - SW
18.07.2018 10:00:00 12,1 -4,1 5 3 - - SW
18.07.2018 09:00:00 10,4 -5,0 5 3 - - W
18.07.2018 08:00:00 9,6 0,6 2 1 - - NW
18.07.2018 07:00:00 9,1 4,5 5 3 - - N
18.07.2018 06:00:00 8,8 6,7 8 4 - - NNW
18.07.2018 05:00:00 8,9 7,2 5 3 - - W
18.07.2018 04:00:00 9,3 7,0 5 3 - - WNW
18.07.2018 03:00:00 8,8 7,7 2 1 - - N
18.07.2018 02:00:00 9,0 7,1 2 1 - - SW
18.07.2018 01:00:00 9,4 6,9 11 6 - - W
18.07.2018 00:00:00 9,4 6,5 16 9 - - W
17.07.2018 23:00:00 9,5 7,2 16 9 - - W
17.07.2018 22:00:00 10,1 7,1 21 11 - - W
17.07.2018 21:00:00 10,7 6,7 24 13 - - W
17.07.2018 20:00:00 11,5 5,0 22 12 - - W
17.07.2018 19:00:00 12,0 3,5 21 11 - - W
17.07.2018 18:00:00 11,5 4,8 26 14 - - W
17.07.2018 17:00:00 12,2 3,8 26 14 - - W
17.07.2018 16:00:00 11,0 5,9 31 17 - - W
17.07.2018 15:00:00 11,3 5,1 29 16 - - W
17.07.2018 14:00:00 11,6 4,4 22 12 - - W
17.07.2018 13:00:00 10,4 5,0 21 11 - - W
17.07.2018 12:00:00 10,9 5,7 18 10 - - W
17.07.2018 11:00:00 9,2 5,6 24 13 - - W
17.07.2018 10:00:00 9,5 6,8 16 9 - - W
17.07.2018 09:00:00 9,4 7,3 18 10 - - W
17.07.2018 08:00:00 8,7 8,3 13 7 - - W
17.07.2018 07:00:00 8,7 8,1 8 4 - - NW
17.07.2018 06:00:00 8,6 8,3 5 3 - - WNW
17.07.2018 05:00:00 8,8 8,2 11 6 - - W
17.07.2018 04:00:00 9,2 9,1 5 3 - - W
17.07.2018 03:00:00 9,0 8,4 5 3 - - NNW
17.07.2018 02:00:00 9,5 8,5 9 5 - - WNW
17.07.2018 01:00:00 9,7 9,5 4 2 - - S
17.07.2018 00:00:00 9,7 9,3 5 3 - - W
16.07.2018 23:00:00 9,9 9,0 5 3 - - W
16.07.2018 22:00:00 10,2 8,9 9 5 - - W
16.07.2018 21:00:00 11,0 8,6 11 6 - - WSW
16.07.2018 20:00:00 11,7 6,0 18 10 - - W
16.07.2018 19:00:00 11,8 7,6 18 10 - - W
16.07.2018 18:00:00 12,0 6,7 22 12 - - W
16.07.2018 17:00:00 12,2 6,2 16 9 - - W
16.07.2018 16:00:00 12,7 7,9 22 12 - - W
16.07.2018 15:00:00 12,3 6,7 22 12 - - W
16.07.2018 14:00:00 11,9 6,8 13 7 - - W
16.07.2018 13:00:00 11,8 6,3 16 9 - - W
16.07.2018 12:00:00 10,9 7,0 24 13 - - W
16.07.2018 11:00:00 10,9 3,1 16 9 - - W
16.07.2018 10:00:00 10,0 6,4 18 10 - - W
16.07.2018 09:00:00 9,8 9,7 22 12 - - W
16.07.2018 08:00:00 10,1 10,0 24 13 - - W
16.07.2018 07:00:00 10,4 10,4 9 5 - - NW
16.07.2018 06:00:00 10,7 10,7 13 7 - - WNW
16.07.2018 05:00:00 11,3 11,3 8 4 - - WNW
16.07.2018 04:00:00 13,3 13,3 21 11 - - SSE
16.07.2018 03:00:00 13,5 13,4 24 13 - - S
16.07.2018 02:00:00 13,5 13,5 26 14 - - S
16.07.2018 01:00:00 13,5 13,5 22 12 - - S
16.07.2018 00:00:00 13,5 13,5 26 14 - - SSE
15.07.2018 23:00:00 13,5 13,5 24 13 - - S
15.07.2018 22:00:00 13,5 13,5 26 14 - - S
15.07.2018 21:00:00 13,6 13,5 18 10 - - S
15.07.2018 20:00:00 13,7 13,7 24 13 - - S
15.07.2018 19:00:00 13,7 13,7 24 13 - - SSE
15.07.2018 18:00:00 13,7 13,7 26 14 - - SSE
15.07.2018 17:00:00 13,6 13,6 24 13 - - S
15.07.2018 16:00:00 13,6 13,5 29 16 48 26 S
15.07.2018 15:00:00 13,8 13,8 24 13 - - S
15.07.2018 14:00:00 13,7 13,7 15 8 - - S
15.07.2018 13:00:00 13,6 13,6 22 12 - - SSE
15.07.2018 12:00:00 13,6 13,5 26 14 - - S
15.07.2018 11:00:00 13,4 13,4 22 12 - - S
15.07.2018 10:00:00 13,2 13,1 21 11 - - SSE
15.07.2018 09:00:00 13,2 13,2 26 14 - - S
15.07.2018 08:00:00 13,3 13,3 21 11 - - S
15.07.2018 07:00:00 13,2 13,2 16 9 - - S
15.07.2018 06:00:00 13,2 13,2 21 11 - - S
15.07.2018 05:00:00 13,3 13,2 21 11 - - S
15.07.2018 04:00:00 13,2 13,2 22 12 - - S
15.07.2018 03:00:00 13,5 13,5 22 12 - - SSW
15.07.2018 02:00:00 13,3 13,3 18 10 - - S
15.07.2018 01:00:00 13,5 12,8 24 13 - - S
15.07.2018 00:00:00 14,0 12,1 24 13 - - S
14.07.2018 23:00:00 13,9 12,0 26 14 - - S
14.07.2018 22:00:00 14,3 11,5 24 13 - - S
14.07.2018 21:00:00 14,7 11,5 22 12 - - SSW
14.07.2018 20:00:00 15,1 11,7 26 14 - - SW
14.07.2018 19:00:00 15,4 11,4 24 13 - - SSW
14.07.2018 18:00:00 15,5 11,2 28 15 - - SSW
14.07.2018 17:00:00 16,4 9,0 24 13 - - WSW
14.07.2018 16:00:00 16,4 9,2 31 17 - - SSW
14.07.2018 15:00:00 15,7 9,4 24 13 - - S
14.07.2018 14:00:00 15,7 9,6 24 13 54 29 SW
14.07.2018 13:00:00 14,7 9,0 37 20 55 30 SSW
14.07.2018 12:00:00 13,7 9,2 34 18 52 28 SSW
14.07.2018 11:00:00 13,4 8,8 28 15 52 28 SSW
14.07.2018 10:00:00 13,4 8,0 26 14 - - SSW
14.07.2018 09:00:00 12,8 7,9 28 15 50 27 SSW
14.07.2018 08:00:00 12,0 8,8 21 11 - - SSW
14.07.2018 07:00:00 11,8 9,3 26 14 - - SSW
14.07.2018 06:00:00 12,1 9,1 22 12 - - SSW
14.07.2018 05:00:00 11,5 9,0 13 7 - - SSW
14.07.2018 04:00:00 11,2 9,1 9 5 - - S
14.07.2018 03:00:00 10,5 8,6 8 4 - - WNW
14.07.2018 02:00:00 10,9 9,7 4 2 - - N
14.07.2018 01:00:00 11,3 10,2 5 3 - - W
14.07.2018 00:00:00 11,2 9,9 8 4 - - NNW
13.07.2018 23:00:00 11,5 10,5 4 2 - - N
13.07.2018 22:00:00 12,3 10,4 18 10 - - W
13.07.2018 21:00:00 14,1 9,6 13 7 - - W
13.07.2018 20:00:00 14,9 7,5 16 9 - - W
13.07.2018 19:00:00 15,0 6,3 15 8 - - W
13.07.2018 18:00:00 14,8 7,9 8 4 - - W
13.07.2018 17:00:00 14,4 9,1 9 5 - - W
13.07.2018 16:00:00 13,5 9,8 9 5 - - W
13.07.2018 15:00:00 13,2 8,6 5 3 - - WSW
13.07.2018 14:00:00 12,6 10,3 4 2 - - W
13.07.2018 13:00:00 12,3 11,4 15 8 - - S
13.07.2018 12:00:00 12,4 9,6 13 7 - - SSE

tt = temperature
td = dewpoint
ff = wind speed
fx = gusts
dd = wind direction

Next stations